Date,TemperatureHighF,TemperatureAvgF,TemperatureLowF,DewpointHighF,DewpointAvgF,DewpointLowF,HumidityHigh,HumidityAvg,HumidityLow,PressureMaxIn,PressureMinIn,WindSpeedMaxMPH,WindSpeedAvgMPH,GustSpeedMaxMPH,PrecipitationSumIn
2013-3-1,30.9,27.6,25.5,26.1,21.3,18.9,82,77,72,29.68,29.53,0,0,0,0.00
2013-3-2,28.0,25.5,23.5,20.6,19.0,16.9,81,76,73,29.67,29.62,0,0,0,0.00
2013-3-3,32.2,24.3,18.3,19.0,16.1,12.5,79,71,55,29.64,29.58,0,0,0,0.00
2013-3-4,43.0,26.1,15.1,25.3,17.1,10.8,84,70,48,29.73,29.64,0,0,0,0.00
2013-3-5,35.2,28.1,21.0,26.4,22.0,16.9,86,78,69,29.69,29.37,0,0,0,0.00
2013-3-6,41.5,33.2,26.6,31.2,26.5,22.0,84,76,64,29.79,29.39,0,0,0,0.00
2013-3-7,38.7,33.8,27.5,30.0,26.5,20.9,85,75,62,29.96,29.77,0,0,0,0.00
2013-3-8,49.1,32.0,22.1,32.6,23.6,17.4,83,72,51,30.07,29.96,0,0,0,0.00
2013-3-9,50.2,35.3,24.8,36.0,28.4,21.1,88,77,57,29.98,29.62,0,0,0,0.00
2013-3-10,65.1,47.4,32.0,48.9,38.3,28.0,88,72,53,29.62,29.38,0,0,0,0.00
2013-3-11,52.5,48.1,36.3,47.2,42.7,31.2,89,82,71,29.40,29.07,0,0,0,0.13
2013-3-12,38.3,33.8,29.1,32.8,28.3,24.3,86,81,70,29.52,29.31,0,0,0,0.00
2013-3-13,33.6,29.1,25.7,26.5,21.3,16.0,87,73,61,29.79,29.47,0,0,0,0.00
2013-3-14,45.5,30.6,19.2,26.7,19.7,13.3,80,65,45,29.85,29.67,0,0,0,0.00
2013-3-15,50.4,36.7,29.1,36.8,29.7,20.9,88,76,57,29.67,29.42,0,0,0,0.08
2013-3-16,34.2,30.5,28.6,30.9,26.7,24.1,91,85,80,29.63,29.32,0,0,0,0.02
2013-3-17,36.5,27.4,20.8,24.3,18.9,15.8,82,70,53,29.83,29.62,0,0,0,0.02
2013-3-18,34.3,30.7,24.3,31.6,26.8,17.9,90,86,76,29.75,29.14,0,0,0,0.06
2013-3-19,33.6,28.3,23.0,30.4,19.9,16.1,88,71,59,29.55,29.23,0,0,0,0.00
2013-3-20,32.9,25.3,16.9,17.8,14.7,9.2,75,64,51,29.54,29.48,0,0,0,0.00
2013-3-21,35.2,24.7,13.6,22.7,16.9,8.0,83,72,57,29.54,29.46,0,0,0,0.00
2013-3-22,47.1,32.7,25.9,26.8,21.0,17.4,77,63,44,29.61,29.52,0,0,0,0.00
2013-3-23,43.5,30.9,19.4,27.9,21.9,15.0,85,70,52,29.68,29.60,0,0,0,0.00
2013-3-24,37.9,30.8,23.9,26.1,23.1,19.5,86,74,57,29.61,29.19,0,0,0,0.00
2013-3-25,39.4,33.6,29.3,32.0,26.6,23.6,87,76,62,29.49,29.12,0,0,0,0.00
2013-3-26,45.7,36.9,31.8,32.2,28.1,25.7,81,71,55,29.70,29.49,0,0,0,0.00
2013-3-27,48.6,36.9,27.1,29.2,26.1,22.3,85,66,45,29.80,29.70,0,0,0,0.00
2013-3-28,54.9,40.4,27.0,30.3,25.6,19.5,78,57,37,29.84,29.79,0,0,0,0.00
2013-3-29,58.1,40.2,24.4,30.2,22.9,17.6,77,53,30,29.87,29.77,0,0,0,0.00
2013-3-30,62.4,41.2,22.5,31.9,24.6,14.8,76,55,30,29.80,29.51,0,0,0,0.00
2013-3-31,64.0,47.8,34.3,44.8,34.3,25.3,81,62,35,29.51,29.22,0,0,0,0.02